• Join FlightAware (Why Join?)
  • Login
  • US Flag 
09:32PM EDT


 

Airport Tracker/Info


-or-


 

Live Flight TrackerFlight Track Log ✈ ASQ3811 ✈ 30-Aug-2013 ✈ KEWR - CYQB

Flight Track Log - Related Links

Times and Time Zones

All times are in EDT time to prevent confusion due to time zone crossing. See the ASQ3811 flight status page for this flight to view local times or setup timezone preferences in your user account.

Time Position Orientation Groundspeed Altitude Reporting Facility
EDT Latitude Longitude Course Direction KTS MPH feet Rate Location/Type
09:27PM 40.6667 -74.1833 48° Northeast 125 144 1,200  Level New York TRACON
09:28PM 40.6333 -74.2167 217° Southwest 200 230 2,900 1,560 Climbing New York TRACON
09:29PM 40.6833 -74.2000 14° North 250 288 4,400 1,800 Climbing New York TRACON
09:30PM 41.0191 -73.7952 40° Northeast  Level FlightAware Approximate
09:30PM 40.7333 -74.1167 52° Northeast 276 318 6,500  Level New York TRACON
09:31PM 41.1054 -73.6982 40° Northeast  Level FlightAware Approximate
09:31PM 40.7667 -74.0167 66° East 290 334 8,400  Level New York TRACON
09:32PM 41.1969 -73.6130 48° Northeast  Level FlightAware Approximate
09:33PM 40.9097 -73.8489 42° Northeast 301 346 11,700  Level Boston Center
09:34PM 40.9964 -73.7683 35° Northeast 334 384 13,000 1,140 Climbing Boston Center
09:35PM 41.0806 -73.6931 34° Northeast 353 406 14,100 1,140 Climbing Boston Center
09:36PM 41.1647 -73.6119 36° Northeast 368 423 15,400 1,200 Climbing Boston Center
09:37PM 41.2489 -73.5333 35° Northeast 368 423 16,500 780 Climbing Boston Center
09:38PM 41.3350 -73.4519 35° Northeast 368 423 17,000 600 Climbing Boston Center
09:39PM 41.4233 -73.3703 35° Northeast 383 441 17,800 900 Climbing Boston Center
09:40PM 41.5217 -73.3081 25° Northeast 378 435 18,900 900 Climbing Boston Center
09:41PM 41.6156 -73.3092 359° North 370 426 19,700 900 Climbing Boston Center
09:42PM 41.7217 -73.3161 357° North 370 426 20,700 960 Climbing Boston Center
09:43PM 41.8258 -73.3261 356° North 370 426 21,700 900 Climbing Boston Center
09:44PM 41.9300 -73.3331 357° North 370 426 22,600 840 Climbing Boston Center
09:45PM 42.0342 -73.3400 357° North 365 420 23,500 900 Climbing Boston Center
09:46PM 42.1406 -73.3306 North 365 420 24,500 900 Climbing Boston Center
09:47PM 42.2450 -73.2928 15° North 370 426 25,300 840 Climbing Boston Center
09:48PM 42.3558 -73.2408 19° North 388 447 26,200 780 Climbing Boston Center
09:49PM 42.4625 -73.2000 16° North 399 459 26,900 360 Climbing Boston Center
09:50PM 42.5753 -73.1592 15° North 405 466 27,000  Climbing Boston Center
09:51PM 42.6944 -73.1181 14° North 422 486 27,000  Level Boston Center
09:52PM 42.8258 -73.0658 16° North 435 501 27,000  Level Boston Center
09:53PM 42.9469 -73.0186 16° North 440 506 27,000  Level Boston Center
09:54PM 43.0578 -72.9714 17° North 440 506 27,000  Level Boston Center
09:55PM 43.1956 -72.9186 16° North 450 518 27,000  Level Boston Center
09:56PM 43.3208 -72.8681 16° North 457 526 27,000  Level Boston Center
09:57PM 43.4458 -72.8206 15° North 457 526 27,000  Level Boston Center
09:58PM 43.5692 -72.7697 17° North 457 526 27,000  Level Boston Center
09:59PM 43.6922 -72.7214 16° North 457 526 27,000  Level Boston Center
10:00PM 43.8172 -72.6703 16° North 460 529 27,000  Level Boston Center
10:01PM 43.9403 -72.6189 17° North 467 537 27,000  Level Boston Center
10:02PM 44.0675 -72.5672 16° North 467 537 27,000  Level Boston Center
10:03PM 44.1947 -72.5153 16° North 467 537 27,000  Level Boston Center
10:04PM 44.3217 -72.4633 16° North 472 543 27,000  Level Boston Center
10:05PM 44.4489 -72.4081 17° North 472 543 27,000  Level Boston Center
10:06PM 44.5800 -72.3586 15° North 479 551 27,000  Level Boston Center
10:07PM 44.7050 -72.3058 17° North 474 545 27,000  Level Boston Center
10:08PM 44.8300 -72.2497 18° North 474 545 27,000  Level Boston Center
10:09PM 44.9506 -72.2025 15° North 463 533 27,000  Level Boston Center
10:10PM 45.0714 -72.1492 17° North 458 527 27,000 -660 Level Boston Center
10:12PM 45.2333 -72.0667 20° North 450 518 25,500 -1,440 Descending Montreal Center
10:13PM 45.3667 -72.0167 15° North 440 506 23,500 -1,920 Descending Montreal Center
10:14PM 45.4667 -71.9500 25° Northeast 430 495 21,700 -1,620 Descending Montreal Center
10:15PM 45.5833 -71.9167 11° North 430 495 20,300 -1,500 Descending Montreal Center
10:16PM 45.7000 -71.8667 17° North 420 483 18,700 -1,560 Descending Montreal Center
10:17PM 45.8167 -71.8000 22° Northeast 400 460 17,200 -1,680 Descending Montreal Center
10:18PM 45.9167 -71.7667 13° North 390 449 15,400 -1,680 Descending Montreal Center
10:19PM 46.0167 -71.7167 19° North 380 437 13,900 -1,320 Descending Montreal Center
10:20PM 46.1167 -71.6833 13° North 330 380 12,800 -1,140 Descending Montreal Center
10:21PM 46.2000 -71.6833 360° North 310 357 11,700 -1,200 Descending Montreal Center
10:22PM 46.2833 -71.6500 15° North 290 334 10,400 -1,500 Descending Montreal Center
10:23PM 46.3500 -71.6500 360° North 270 311 8,800 -1,380 Descending Montreal Center
10:24PM 46.4333 -71.6167 15° North 280 322 7,700 -1,200 Descending Montreal Center
10:25PM 46.5167 -71.6000 North 270 311 6,400 -1,500 Descending Montreal Center
10:26PM 46.5833 -71.6000 360° North 260 299 4,800 -1,380 Descending Montreal Center
10:27PM 46.6500 -71.5667 19° North 240 276 3,700 -1,020 Descending Montreal Center
10:28PM 46.6667 -71.5167 64° Northeast 180 207 2,800 -1,020 Descending Montreal Center
10:29PM 46.7167 -71.4667 34° Northeast 180 207 1,700 -900 Descending Montreal Center
10:30PM 46.7333 -71.4333 54° Northeast 150 173 1,000 -720 Descending Montreal Center
10:31PM 46.7667 -71.3833 46° Northeast 150 173 300 -720 Descending Montreal Center